Time;durP1;ratioP1;P1;durP2;ratioP2;P2;SDS_P1;SDS_P2;PMS_P1;PMS_P2;Temp;Humidity;BMP_temperature;BMP_pressure;BME280_temperature;BME280_humidity;BME280_pressure;Samples;Min_cycle;Max_cycle;Signal;HPM_P1;HPM_P2
2023/12/15 00:00:30;;;;;;;32.30;18.45;;;;;;;;;;2089321;28;20471;-76
2023/12/15 00:01:51;;;;;;;29.42;18.13;;;;;;;;;;2088232;28;20143;-76
2023/12/15 00:03:12;;;;;;;32.33;18.63;;;;;;;;;;2088686;28;20088;-76
2023/12/15 00:04:33;;;;;;;30.40;18.30;;;;;;;;;;2090788;28;20475;-76
2023/12/15 00:05:54;;;;;;;32.78;17.73;;;;;;;;;;2082281;28;20048;-76
2023/12/15 00:07:15;;;;;;;31.60;18.30;;;;;;;;;;2081146;28;20045;-76
2023/12/15 00:08:36;;;;;;;25.75;16.65;;;;;;;;;;2087938;28;20029;-76
2023/12/15 00:09:57;;;;;;;33.55;19.73;;;;;;;;;;2080706;28;20057;-77
2023/12/15 00:11:19;;;;;;;29.17;17.40;;;;;;;;;;2089438;28;20111;-76
2023/12/15 00:12:40;;;;;;;32.05;17.63;;;;;;;;;;2089282;28;20140;-76
2023/12/15 00:14:01;;;;;;;30.55;17.83;;;;;;;;;;2094780;28;20039;-76
2023/12/15 00:15:22;;;;;;;32.60;18.20;;;;;;;;;;2097945;28;20397;-76
2023/12/15 00:16:43;;;;;;;34.87;18.57;;;;;;;;;;2093381;28;20048;-77
2023/12/15 00:18:04;;;;;;;30.20;18.65;;;;;;;;;;2085235;28;20776;-77
2023/12/15 00:19:25;;;;;;;39.40;22.45;;;;;;;;;;2072656;28;20046;-76
2023/12/15 00:20:46;;;;;;;35.15;19.40;;;;;;;;;;2076585;28;20041;-76
2023/12/15 00:22:06;;;;;;;37.85;19.38;;;;;;;;;;2087560;28;20026;-76
2023/12/15 00:23:27;;;;;;;32.08;19.08;;;;;;;;;;2081768;28;20100;-76
2023/12/15 00:24:48;;;;;;;34.25;18.58;;;;;;;;;;2082514;28;20034;-76
2023/12/15 00:26:09;;;;;;;33.22;18.15;;;;;;;;;;2088035;28;20037;-76
2023/12/15 00:27:30;;;;;;;30.05;17.83;;;;;;;;;;2081258;28;20535;-76
2023/12/15 00:28:51;;;;;;;29.60;18.70;;;;;;;;;;2086762;28;20452;-76
2023/12/15 00:30:12;;;;;;;45.15;23.35;;;;;;;;;;2078028;28;20040;-76
2023/12/15 00:31:33;;;;;;;30.55;18.52;;;;;;;;;;2090482;28;20399;-76
2023/12/15 00:32:54;;;;;;;38.45;21.33;;;;;;;;;;2088278;28;20103;-77
2023/12/15 00:34:15;;;;;;;39.78;20.80;;;;;;;;;;2095129;28;20024;-76
2023/12/15 00:35:36;;;;;;;37.65;19.77;;;;;;;;;;2085672;28;21536;-76
2023/12/15 00:36:57;;;;;;;33.17;18.58;;;;;;;;;;2086518;28;20037;-77
2023/12/15 00:38:18;;;;;;;45.45;22.52;;;;;;;;;;2085361;28;20032;-76
2023/12/15 00:39:38;;;;;;;37.95;19.08;;;;;;;;;;2094937;28;20037;-76
2023/12/15 00:40:59;;;;;;;33.72;18.50;;;;;;;;;;2082852;28;20049;-76
2023/12/15 00:42:20;;;;;;;39.60;19.88;;;;;;;;;;2082487;28;20038;-76
2023/12/15 00:43:41;;;;;;;36.47;19.35;;;;;;;;;;2087024;28;20025;-76
2023/12/15 00:45:02;;;;;;;36.15;18.92;;;;;;;;;;2082008;28;20021;-76
2023/12/15 00:46:23;;;;;;;45.38;22.48;;;;;;;;;;2083046;28;20033;-76
2023/12/15 00:47:44;;;;;;;45.00;20.10;;;;;;;;;;2081938;28;20025;-76
2023/12/15 00:49:05;;;;;;;30.10;19.45;;;;;;;;;;2087870;28;20021;-76
2023/12/15 00:50:28;;;;;;;36.20;20.20;;;;;;;;;;2079083;28;20353;-77
2023/12/15 00:51:49;;;;;;;42.28;21.85;;;;;;;;;;2081557;28;20055;-76
2023/12/15 00:53:10;;;;;;;34.90;20.73;;;;;;;;;;2081303;28;20048;-76
2023/12/15 00:54:31;;;;;;;41.30;21.65;;;;;;;;;;2085997;28;20036;-76
2023/12/15 00:55:52;;;;;;;43.67;19.77;;;;;;;;;;2090268;28;20040;-76
2023/12/15 00:57:13;;;;;;;44.40;20.33;;;;;;;;;;2089622;28;20463;-76
2023/12/15 00:58:34;;;;;;;40.20;21.80;;;;;;;;;;2080360;28;20041;-76
2023/12/15 00:59:55;;;;;;;44.72;21.95;;;;;;;;;;2086911;28;20033;-77
2023/12/15 01:01:16;;;;;;;43.50;22.80;;;;;;;;;;2085603;28;20041;-76
2023/12/15 01:02:37;;;;;;;41.08;21.67;;;;;;;;;;2087790;28;20029;-76
2023/12/15 01:03:58;;;;;;;44.00;22.30;;;;;;;;;;2082481;28;20425;-76
2023/12/15 01:05:18;;;;;;;44.50;22.13;;;;;;;;;;2087852;28;20040;-76
2023/12/15 01:06:39;;;;;;;44.97;22.42;;;;;;;;;;2074804;28;20118;-76
2023/12/15 01:08:00;;;;;;;40.45;21.83;;;;;;;;;;2077959;28;20129;-76
2023/12/15 01:09:21;;;;;;;43.28;21.52;;;;;;;;;;2073341;28;20042;-76
2023/12/15 01:10:42;;;;;;;47.53;21.30;;;;;;;;;;2080843;28;20071;-76
2023/12/15 01:12:03;;;;;;;42.63;21.50;;;;;;;;;;2078736;28;20033;-76
2023/12/15 01:13:24;;;;;;;46.15;20.33;;;;;;;;;;2080419;28;20087;-76
2023/12/15 01:14:45;;;;;;;42.53;22.55;;;;;;;;;;2080936;28;20033;-76
2023/12/15 01:16:06;;;;;;;46.70;22.58;;;;;;;;;;2088458;28;20580;-77
2023/12/15 01:17:27;;;;;;;45.03;22.05;;;;;;;;;;2078703;28;20033;-76
2023/12/15 01:18:48;;;;;;;39.60;20.48;;;;;;;;;;2090326;28;20017;-77
2023/12/15 01:20:10;;;;;;;42.85;19.90;;;;;;;;;;2088669;28;20354;-77
2023/12/15 01:21:31;;;;;;;41.47;20.25;;;;;;;;;;2079569;28;20048;-77
2023/12/15 01:22:52;;;;;;;43.67;21.35;;;;;;;;;;2074502;28;20026;-76
2023/12/15 01:24:13;;;;;;;47.65;22.10;;;;;;;;;;2094672;28;20463;-77
2023/12/15 01:25:33;;;;;;;44.85;23.00;;;;;;;;;;2080545;28;20049;-76
2023/12/15 01:26:54;;;;;;;50.05;23.70;;;;;;;;;;2082785;28;20040;-76
2023/12/15 01:28:15;;;;;;;49.35;23.17;;;;;;;;;;2095430;28;20036;-76
2023/12/15 01:29:36;;;;;;;52.53;26.17;;;;;;;;;;2087052;28;20041;-77
2023/12/15 01:31:01;;;;;;;52.38;22.23;;;;;;;;;;2079905;28;20034;-75
2023/12/15 01:32:22;;;;;;;52.70;22.20;;;;;;;;;;2080777;28;20029;-74
2023/12/15 01:33:42;;;;;;;46.75;23.27;;;;;;;;;;2086186;28;20029;-74
2023/12/15 01:35:04;;;;;;;49.63;23.90;;;;;;;;;;2087306;28;20034;-76
2023/12/15 01:36:25;;;;;;;49.33;23.70;;;;;;;;;;2089265;28;20021;-76
2023/12/15 01:37:46;;;;;;;42.63;22.52;;;;;;;;;;2082770;28;20029;-77
2023/12/15 01:39:07;;;;;;;53.47;22.77;;;;;;;;;;2080334;28;20474;-76
2023/12/15 01:40:28;;;;;;;58.42;24.20;;;;;;;;;;2091793;28;20028;-75
2023/12/15 01:41:49;;;;;;;55.80;24.90;;;;;;;;;;2097520;28;20045;-76
2023/12/15 01:43:10;;;;;;;51.03;23.13;;;;;;;;;;2097411;28;20024;-76
2023/12/15 01:44:30;;;;;;;49.53;23.27;;;;;;;;;;2095031;28;20484;-76
2023/12/15 01:45:51;;;;;;;44.00;20.30;;;;;;;;;;2088284;28;20036;-76
2023/12/15 01:47:13;;;;;;;54.47;24.35;;;;;;;;;;2087658;28;20029;-77
2023/12/15 01:48:34;;;;;;;54.13;23.85;;;;;;;;;;2072424;28;20067;-77
2023/12/15 01:49:55;;;;;;;50.47;23.67;;;;;;;;;;2075642;28;20568;-76
2023/12/15 01:51:17;;;;;;;51.08;23.45;;;;;;;;;;2086281;28;20044;-77
2023/12/15 01:52:38;;;;;;;48.08;22.33;;;;;;;;;;2080842;28;20477;-77
2023/12/15 01:53:59;;;;;;;49.88;22.38;;;;;;;;;;2085843;28;20434;-77
2023/12/15 01:55:20;;;;;;;47.25;22.65;;;;;;;;;;2081143;28;20087;-77
2023/12/15 01:56:40;;;;;;;53.92;23.80;;;;;;;;;;2091874;28;20024;-76
2023/12/15 01:58:01;;;;;;;55.35;23.77;;;;;;;;;;2080064;28;20520;-77
2023/12/15 01:59:22;;;;;;;48.78;21.55;;;;;;;;;;2081107;28;20045;-77
2023/12/15 02:00:46;;;;;;;54.92;23.88;;;;;;;;;;2079045;28;20029;-77
2023/12/15 02:02:07;;;;;;;44.05;21.73;;;;;;;;;;2080690;28;20037;-77
2023/12/15 02:03:28;;;;;;;50.55;23.35;;;;;;;;;;2086898;28;20025;-75
2023/12/15 02:04:49;;;;;;;54.00;23.73;;;;;;;;;;2080376;28;20101;-74
2023/12/15 02:06:10;;;;;;;52.72;23.52;;;;;;;;;;2077720;28;20033;-74
2023/12/15 02:07:31;;;;;;;52.63;23.20;;;;;;;;;;2086149;28;20024;-77
2023/12/15 02:08:52;;;;;;;49.90;22.38;;;;;;;;;;2095458;28;20025;-76
2023/12/15 02:10:13;;;;;;;53.22;23.23;;;;;;;;;;2084420;28;20029;-75
2023/12/15 02:11:34;;;;;;;57.42;23.45;;;;;;;;;;2078640;28;20046;-76
2023/12/15 02:12:55;;;;;;;52.53;21.38;;;;;;;;;;2088020;28;20025;-75
2023/12/15 02:14:16;;;;;;;50.05;22.35;;;;;;;;;;2087946;28;20025;-75
2023/12/15 02:15:37;;;;;;;55.25;22.50;;;;;;;;;;2076585;28;20038;-74
2023/12/15 02:16:57;;;;;;;59.75;24.98;;;;;;;;;;2086760;28;20037;-77
2023/12/15 02:18:18;;;;;;;51.40;23.70;;;;;;;;;;2072775;28;20041;-76
2023/12/15 02:19:39;;;;;;;56.92;22.83;;;;;;;;;;2087517;28;20091;-77
2023/12/15 02:21:00;;;;;;;58.97;25.02;;;;;;;;;;2085048;28;20068;-76
2023/12/15 02:22:23;;;;;;;60.33;24.52;;;;;;;;;;2095961;28;20048;-77
2023/12/15 02:23:44;;;;;;;47.15;23.88;;;;;;;;;;2085364;28;20469;-77
2023/12/15 02:25:05;;;;;;;47.92;22.48;;;;;;;;;;2085779;28;20048;-76
2023/12/15 02:26:26;;;;;;;54.92;22.63;;;;;;;;;;2071468;28;20030;-76
2023/12/15 02:27:47;;;;;;;60.28;24.20;;;;;;;;;;2076765;28;20038;-77
2023/12/15 02:29:08;;;;;;;65.25;25.77;;;;;;;;;;2076547;28;20018;-74
2023/12/15 02:30:29;;;;;;;57.83;23.27;;;;;;;;;;2078703;28;20417;-76
2023/12/15 02:31:50;;;;;;;57.90;22.75;;;;;;;;;;2085089;28;20037;-76
2023/12/15 02:33:11;;;;;;;58.60;24.65;;;;;;;;;;2080724;28;20053;-77
2023/12/15 02:34:32;;;;;;;52.53;22.92;;;;;;;;;;2080022;28;20200;-76
2023/12/15 02:35:53;;;;;;;57.38;24.80;;;;;;;;;;2086365;28;20416;-77
2023/12/15 02:37:13;;;;;;;50.88;22.13;;;;;;;;;;2079766;28;20037;-76
2023/12/15 02:38:34;;;;;;;60.30;24.90;;;;;;;;;;2081248;28;20037;-77
2023/12/15 02:39:55;;;;;;;60.60;23.02;;;;;;;;;;2083480;28;20385;-77
2023/12/15 02:41:16;;;;;;;46.83;22.45;;;;;;;;;;2077054;28;20091;-77
2023/12/15 02:42:37;;;;;;;53.17;22.60;;;;;;;;;;2079689;28;20453;-76
2023/12/15 02:43:58;;;;;;;48.85;22.52;;;;;;;;;;2079942;28;20030;-77
2023/12/15 02:45:19;;;;;;;51.85;23.30;;;;;;;;;;2086465;28;20032;-77
2023/12/15 02:46:40;;;;;;;59.08;25.60;;;;;;;;;;2088913;28;20036;-77
2023/12/15 02:48:01;;;;;;;50.30;25.65;;;;;;;;;;2080552;28;20026;-76
2023/12/15 02:49:22;;;;;;;49.28;22.88;;;;;;;;;;2085819;28;20040;-77
2023/12/15 02:50:42;;;;;;;67.68;27.83;;;;;;;;;;2096175;28;20373;-76
2023/12/15 02:52:03;;;;;;;53.08;22.38;;;;;;;;;;2072611;28;20045;-77
2023/12/15 02:53:24;;;;;;;59.03;22.90;;;;;;;;;;2077978;28;20045;-74
2023/12/15 02:54:45;;;;;;;61.78;25.33;;;;;;;;;;2075839;28;20071;-76
2023/12/15 02:56:07;;;;;;;60.38;24.25;;;;;;;;;;2094837;28;20522;-75
2023/12/15 02:57:27;;;;;;;56.55;24.52;;;;;;;;;;2092061;28;20098;-75
2023/12/15 02:58:48;;;;;;;59.63;24.65;;;;;;;;;;2087328;28;20029;-75
2023/12/15 03:00:09;;;;;;;52.30;23.30;;;;;;;;;;2088996;28;20033;-74
2023/12/15 03:01:30;;;;;;;56.22;22.80;;;;;;;;;;2078748;28;20037;-75
2023/12/15 03:02:51;;;;;;;49.08;22.10;;;;;;;;;;2077406;28;20113;-74
2023/12/15 03:04:12;;;;;;;66.47;26.15;;;;;;;;;;2086765;28;20485;-75
2023/12/15 03:05:33;;;;;;;59.10;23.73;;;;;;;;;;2078714;28;20029;-72
2023/12/15 03:06:55;;;;;;;59.05;25.23;;;;;;;;;;2085210;28;20033;-74
2023/12/15 03:08:16;;;;;;;61.70;24.80;;;;;;;;;;2090511;28;20032;-74
2023/12/15 03:09:36;;;;;;;55.72;22.42;;;;;;;;;;2082974;28;20026;-75
2023/12/15 03:10:57;;;;;;;53.28;23.90;;;;;;;;;;2085595;28;20488;-75
2023/12/15 03:12:18;;;;;;;62.55;23.77;;;;;;;;;;2079451;28;20042;-74
2023/12/15 03:13:39;;;;;;;66.28;23.88;;;;;;;;;;2079484;28;20046;-75
2023/12/15 03:15:00;;;;;;;59.13;24.45;;;;;;;;;;2080284;28;20025;-75
2023/12/15 03:16:21;;;;;;;62.15;25.08;;;;;;;;;;2079072;28;20088;-76
2023/12/15 03:17:42;;;;;;;60.88;25.38;;;;;;;;;;2083881;28;20033;-77
2023/12/15 03:19:03;;;;;;;56.22;23.45;;;;;;;;;;2081427;28;20030;-77
2023/12/15 03:20:24;;;;;;;64.57;25.70;;;;;;;;;;2074947;28;20033;-77
2023/12/15 03:21:45;;;;;;;61.60;25.02;;;;;;;;;;2083331;28;20068;-76
2023/12/15 03:23:07;;;;;;;66.93;25.85;;;;;;;;;;2081737;28;20096;-76
2023/12/15 03:24:28;;;;;;;;;;;;;;;;;;2082117;28;20481;-74
2023/12/15 03:25:49;;;;;;;59.13;23.33;;;;;;;;;;2081006;28;19920;-75
2023/12/15 03:27:10;;;;;;;66.70;26.77;;;;;;;;;;2090172;28;20032;-74
2023/12/15 03:28:31;;;;;;;66.28;27.65;;;;;;;;;;2089210;28;20488;-74
2023/12/15 03:29:52;;;;;;;68.22;27.30;;;;;;;;;;2095225;28;20036;-75
2023/12/15 03:31:13;;;;;;;64.68;26.35;;;;;;;;;;2088827;28;20025;-75
2023/12/15 03:32:34;;;;;;;60.25;25.15;;;;;;;;;;2087506;28;20421;-75
2023/12/15 03:33:54;;;;;;;69.28;26.73;;;;;;;;;;2070965;28;20042;-75
2023/12/15 03:35:15;;;;;;;70.55;26.33;;;;;;;;;;2078987;28;20029;-74
2023/12/15 03:36:38;;;;;;;59.00;24.38;;;;;;;;;;2087733;28;20033;-75
2023/12/15 03:37:59;;;;;;;65.57;24.88;;;;;;;;;;2090772;28;20033;-75
2023/12/15 03:39:20;;;;;;;64.88;25.23;;;;;;;;;;2083099;28;20083;-75
2023/12/15 03:40:41;;;;;;;62.35;26.00;;;;;;;;;;2080938;28;20030;-75
2023/12/15 03:42:06;;;;;;;64.60;26.27;;;;;;;;;;2075732;28;20513;-75
2023/12/15 03:43:27;;;;;;;62.88;25.10;;;;;;;;;;2079187;28;20063;-76
2023/12/15 03:44:48;;;;;;;66.00;23.90;;;;;;;;;;2088076;28;20033;-75
2023/12/15 03:46:10;;;;;;;69.28;26.88;;;;;;;;;;2083051;28;20034;-75
2023/12/15 03:47:31;;;;;;;67.50;25.85;;;;;;;;;;2085012;28;20029;-76
2023/12/15 03:48:52;;;;;;;57.55;24.50;;;;;;;;;;2081337;28;20068;-75
2023/12/15 03:50:13;;;;;;;64.63;26.42;;;;;;;;;;2084758;28;20041;-76
2023/12/15 03:51:34;;;;;;;71.03;26.40;;;;;;;;;;2089285;28;20047;-75
2023/12/15 03:52:55;;;;;;;71.75;25.65;;;;;;;;;;2095706;28;20062;-76
2023/12/15 03:54:16;;;;;;;64.82;26.40;;;;;;;;;;2089060;28;20037;-75
2023/12/15 03:55:37;;;;;;;61.08;25.27;;;;;;;;;;2087449;28;20079;-75
2023/12/15 03:56:58;;;;;;;60.45;24.63;;;;;;;;;;2087879;28;20048;-76
2023/12/15 03:58:19;;;;;;;65.57;26.60;;;;;;;;;;2095801;28;20032;-77
2023/12/15 03:59:39;;;;;;;72.05;26.98;;;;;;;;;;2089370;28;20502;-75
2023/12/15 04:01:00;;;;;;;69.85;26.83;;;;;;;;;;2095447;28;20040;-75
2023/12/15 04:02:21;;;;;;;70.43;26.40;;;;;;;;;;2081176;28;20124;-75
2023/12/15 04:03:42;;;;;;;69.20;25.42;;;;;;;;;;2088082;28;20033;-76
2023/12/15 04:05:03;;;;;;;72.70;27.30;;;;;;;;;;2081612;28;20026;-76
2023/12/15 04:06:24;;;;;;;65.82;25.05;;;;;;;;;;2090542;28;20088;-75
2023/12/15 04:07:45;;;;;;;68.25;26.35;;;;;;;;;;2086052;28;20107;-75
2023/12/15 04:09:09;;;;;;;67.72;27.70;;;;;;;;;;2081057;28;20167;-75
2023/12/15 04:10:30;;;;;;;65.25;25.20;;;;;;;;;;2088086;28;20032;-76
2023/12/15 04:11:51;;;;;;;77.40;28.13;;;;;;;;;;2079792;28;20341;-76
2023/12/15 04:13:12;;;;;;;70.32;24.80;;;;;;;;;;2087797;28;20169;-76
2023/12/15 04:14:33;;;;;;;68.72;26.58;;;;;;;;;;2090437;28;20099;-76
2023/12/15 04:15:54;;;;;;;71.00;26.00;;;;;;;;;;2087454;28;20508;-76
2023/12/15 04:17:14;;;;;;;66.63;25.45;;;;;;;;;;2071962;28;20136;-76
2023/12/15 04:18:35;;;;;;;65.15;25.35;;;;;;;;;;2075987;28;20037;-75
2023/12/15 04:19:56;;;;;;;63.90;25.40;;;;;;;;;;2086426;28;20388;-77
2023/12/15 04:21:17;;;;;;;77.40;26.92;;;;;;;;;;2088549;28;20089;-76
2023/12/15 04:22:38;;;;;;;72.22;27.05;;;;;;;;;;2094494;28;20059;-76
2023/12/15 04:23:59;;;;;;;80.05;27.73;;;;;;;;;;2088923;28;20029;-77
2023/12/15 04:25:20;;;;;;;68.63;25.30;;;;;;;;;;2089599;28;20049;-77
2023/12/15 04:26:41;;;;;;;70.10;26.55;;;;;;;;;;2091907;28;20369;-77
2023/12/15 04:28:01;;;;;;;71.00;27.85;;;;;;;;;;2097540;28;20035;-77
2023/12/15 04:29:22;;;;;;;68.53;28.55;;;;;;;;;;2081181;28;20029;-75
2023/12/15 04:30:43;;;;;;;78.85;28.05;;;;;;;;;;2082416;28;20485;-76
2023/12/15 04:32:04;;;;;;;78.53;30.23;;;;;;;;;;2093602;28;20476;-76
2023/12/15 04:33:25;;;;;;;69.72;26.38;;;;;;;;;;2081287;28;20508;-77
2023/12/15 04:34:46;;;;;;;73.07;26.70;;;;;;;;;;2079396;28;20021;-76
2023/12/15 04:36:08;;;;;;;70.35;25.58;;;;;;;;;;2090668;28;20029;-76
2023/12/15 04:37:29;;;;;;;72.40;24.77;;;;;;;;;;2087884;28;20028;-76
2023/12/15 04:38:49;;;;;;;76.28;26.48;;;;;;;;;;2095183;28;20484;-76
2023/12/15 04:40:13;;;;;;;73.95;24.60;;;;;;;;;;2081846;28;20090;-76
2023/12/15 04:41:33;;;;;;;67.15;27.17;;;;;;;;;;2079952;28;20033;-76
2023/12/15 04:42:54;;;;;;;72.25;26.60;;;;;;;;;;2087220;28;20516;-77
2023/12/15 04:44:15;;;;;;;73.93;26.10;;;;;;;;;;2095174;28;20029;-77
2023/12/15 04:45:36;;;;;;;86.07;30.55;;;;;;;;;;2088268;28;20017;-76
2023/12/15 04:46:57;;;;;;;78.95;27.70;;;;;;;;;;2081143;28;20105;-77
2023/12/15 04:48:18;;;;;;;67.55;26.25;;;;;;;;;;2077461;28;20037;-76
2023/12/15 04:49:39;;;;;;;77.47;27.05;;;;;;;;;;2081520;28;20076;-77
2023/12/15 04:51:00;;;;;;;77.00;26.85;;;;;;;;;;2073756;28;20045;-76
2023/12/15 04:52:21;;;;;;;63.92;24.65;;;;;;;;;;2070968;28;20038;-77
2023/12/15 04:53:43;;;;;;;80.10;27.60;;;;;;;;;;2079892;28;20034;-76
2023/12/15 04:55:04;;;;;;;80.03;28.48;;;;;;;;;;2089271;28;20032;-77
2023/12/15 04:56:25;;;;;;;80.20;28.13;;;;;;;;;;2081247;28;20511;-74
2023/12/15 04:57:46;;;;;;;74.13;25.77;;;;;;;;;;2090903;28;20460;-75
2023/12/15 04:59:07;;;;;;;91.03;29.20;;;;;;;;;;2080315;28;20029;-75
2023/12/15 05:00:28;;;;;;;75.10;27.30;;;;;;;;;;2081824;28;20038;-75
2023/12/15 05:01:48;;;;;;;82.43;29.40;;;;;;;;;;2080987;28;20441;-75
2023/12/15 05:03:09;;;;;;;76.95;26.58;;;;;;;;;;2085877;28;20051;-76
2023/12/15 05:04:30;;;;;;;84.65;26.83;;;;;;;;;;2078063;28;20025;-75
2023/12/15 05:05:51;;;;;;;80.22;29.20;;;;;;;;;;2085716;28;20421;-75
2023/12/15 05:07:12;;;;;;;81.07;26.83;;;;;;;;;;2084416;28;20029;-77
2023/12/15 05:08:33;;;;;;;75.65;27.02;;;;;;;;;;2083065;28;20025;-75
2023/12/15 05:09:55;;;;;;;80.03;27.05;;;;;;;;;;2080453;28;20123;-76
2023/12/15 05:11:16;;;;;;;72.03;27.60;;;;;;;;;;2078863;28;20397;-76
2023/12/15 05:12:37;;;;;;;79.93;27.27;;;;;;;;;;2080938;28;20045;-75
2023/12/15 05:13:58;;;;;;;79.07;27.15;;;;;;;;;;2085084;28;20041;-75
2023/12/15 05:15:19;;;;;;;75.32;26.40;;;;;;;;;;2080665;28;20264;-76
2023/12/15 05:16:39;;;;;;;78.10;26.15;;;;;;;;;;2088005;28;20052;-76
2023/12/15 05:18:00;;;;;;;77.10;27.20;;;;;;;;;;2089181;28;20037;-75
2023/12/15 05:19:21;;;;;;;82.72;27.20;;;;;;;;;;2089675;28;20109;-76
2023/12/15 05:20:42;;;;;;;85.15;28.33;;;;;;;;;;2079950;28;20034;-75
2023/12/15 05:22:03;;;;;;;77.30;27.02;;;;;;;;;;2087335;28;20045;-76
2023/12/15 05:23:24;;;;;;;77.15;26.17;;;;;;;;;;2072665;28;20026;-75
2023/12/15 05:24:45;;;;;;;83.43;28.30;;;;;;;;;;2078331;28;20404;-75
2023/12/15 05:26:06;;;;;;;79.03;26.27;;;;;;;;;;2079448;28;20025;-75
2023/12/15 05:27:27;;;;;;;80.10;28.95;;;;;;;;;;2078815;28;20365;-76
2023/12/15 05:28:48;;;;;;;88.05;27.58;;;;;;;;;;2078270;28;20041;-75
2023/12/15 05:30:09;;;;;;;74.53;26.38;;;;;;;;;;2078874;28;20017;-76
2023/12/15 05:31:30;;;;;;;77.10;28.20;;;;;;;;;;2086653;28;20489;-75
2023/12/15 05:32:51;;;;;;;77.45;26.77;;;;;;;;;;2084330;28;20037;-75
2023/12/15 05:34:11;;;;;;;85.68;27.83;;;;;;;;;;2087439;28;20029;-75
2023/12/15 05:35:35;;;;;;;87.80;28.25;;;;;;;;;;2093392;28;20425;-76
2023/12/15 05:36:56;;;;;;;82.95;27.75;;;;;;;;;;2081130;28;20048;-75
2023/12/15 05:38:17;;;;;;;81.32;26.90;;;;;;;;;;2081071;28;20038;-75
2023/12/15 05:39:42;;;;;;;79.85;28.40;;;;;;;;;;2085994;28;20030;-76
2023/12/15 05:41:03;;;;;;;81.07;26.05;;;;;;;;;;2080629;28;20033;-77
2023/12/15 05:42:25;;;;;;;79.90;26.63;;;;;;;;;;2081272;28;20387;-77
2023/12/15 05:43:45;;;;;;;77.30;25.98;;;;;;;;;;2087824;28;20044;-76
2023/12/15 05:45:06;;;;;;;85.65;28.75;;;;;;;;;;2082269;28;20461;-75
2023/12/15 05:46:27;;;;;;;77.97;26.73;;;;;;;;;;2085702;28;20345;-75
2023/12/15 05:47:48;;;;;;;83.25;29.08;;;;;;;;;;2089331;28;20025;-74
2023/12/15 05:49:10;;;;;;;84.50;28.10;;;;;;;;;;2080305;28;20021;-75
2023/12/15 05:50:31;;;;;;;77.60;27.77;;;;;;;;;;2087001;28;20029;-75
2023/12/15 05:51:52;;;;;;;84.43;26.80;;;;;;;;;;2093960;28;20036;-75
2023/12/15 05:53:13;;;;;;;77.60;29.27;;;;;;;;;;2081681;28;20041;-75
2023/12/15 05:54:34;;;;;;;84.75;29.88;;;;;;;;;;2081931;28;20053;-76
2023/12/15 05:55:55;;;;;;;89.93;30.10;;;;;;;;;;2079302;28;20040;-77
2023/12/15 05:57:16;;;;;;;85.55;29.83;;;;;;;;;;2086339;28;20415;-75
2023/12/15 05:58:37;;;;;;;72.07;26.40;;;;;;;;;;2084690;28;20051;-76
2023/12/15 05:59:58;;;;;;;70.80;26.05;;;;;;;;;;2077704;28;20385;-76
2023/12/15 06:01:18;;;;;;;69.75;26.90;;;;;;;;;;2076985;28;20151;-76
2023/12/15 06:02:40;;;;;;;75.90;29.08;;;;;;;;;;2076286;28;20099;-76
2023/12/15 06:04:01;;;;;;;78.80;28.77;;;;;;;;;;2079505;28;20503;-76
2023/12/15 06:05:22;;;;;;;70.13;28.08;;;;;;;;;;2070508;28;20433;-76
2023/12/15 06:06:43;;;;;;;78.28;29.17;;;;;;;;;;2068947;28;20030;-76
2023/12/15 06:08:05;;;;;;;80.45;28.67;;;;;;;;;;2079411;28;20034;-76
2023/12/15 06:09:27;;;;;;;83.05;28.60;;;;;;;;;;2085894;28;20029;-76
2023/12/15 06:10:49;;;;;;;79.50;28.00;;;;;;;;;;2079211;28;20034;-76
2023/12/15 06:12:10;;;;;;;;;;;;;;;;;;2078503;28;20346;-76
2023/12/15 06:13:30;;;;;;;80.45;28.17;;;;;;;;;;2087345;28;19935;-76
2023/12/15 06:14:51;;;;;;;75.22;27.95;;;;;;;;;;2079475;28;20037;-77
2023/12/15 06:16:19;;;;;;;80.80;28.60;;;;;;;;;;2084108;28;20092;-76
2023/12/15 06:17:39;;;;;;;85.65;30.15;;;;;;;;;;2088535;28;20028;-75
2023/12/15 06:19:01;;;;;;;76.18;28.25;;;;;;;;;;2088481;28;20345;-76
2023/12/15 06:20:21;;;;;;;76.25;29.25;;;;;;;;;;2088294;28;20029;-76
2023/12/15 06:21:42;;;;;;;78.88;28.40;;;;;;;;;;2088766;28;20441;-76
2023/12/15 06:23:03;;;;;;;90.20;28.33;;;;;;;;;;2089149;28;20036;-77
2023/12/15 06:24:24;;;;;;;81.25;28.63;;;;;;;;;;2079981;28;20033;-77
2023/12/15 06:25:45;;;;;;;76.30;28.27;;;;;;;;;;2079708;28;20037;-76
2023/12/15 06:27:06;;;;;;;88.03;28.52;;;;;;;;;;2077880;28;20339;-76
2023/12/15 06:28:27;;;;;;;95.95;29.67;;;;;;;;;;2084174;28;20078;-76
2023/12/15 06:29:47;;;;;;;95.65;33.00;;;;;;;;;;2088979;28;20032;-74
2023/12/15 06:31:08;;;;;;;88.40;30.13;;;;;;;;;;2087530;28;20512;-77
2023/12/15 06:32:29;;;;;;;95.28;31.48;;;;;;;;;;2089209;28;20033;-76
2023/12/15 06:33:50;;;;;;;90.50;29.38;;;;;;;;;;2089078;28;20021;-77
2023/12/15 06:35:11;;;;;;;100.18;33.03;;;;;;;;;;2087791;28;20032;-77
2023/12/15 06:36:32;;;;;;;88.65;29.83;;;;;;;;;;2084808;28;20040;-77
2023/12/15 06:37:53;;;;;;;92.13;30.27;;;;;;;;;;2081929;28;20033;-74
2023/12/15 06:39:14;;;;;;;91.25;30.42;;;;;;;;;;2081240;28;20032;-76
2023/12/15 06:40:35;;;;;;;86.28;30.67;;;;;;;;;;2080551;28;20037;-77
2023/12/15 06:41:56;;;;;;;88.70;31.23;;;;;;;;;;2080389;28;20025;-76
2023/12/15 06:43:17;;;;;;;93.07;31.60;;;;;;;;;;2080039;28;20405;-76
2023/12/15 06:44:38;;;;;;;81.15;28.75;;;;;;;;;;2078742;28;20037;-76
2023/12/15 06:45:59;;;;;;;88.97;30.38;;;;;;;;;;2077880;28;20107;-77
2023/12/15 06:47:23;;;;;;;96.65;30.92;;;;;;;;;;2078203;28;20452;-75
2023/12/15 06:48:44;;;;;;;88.93;30.73;;;;;;;;;;2080141;28;20025;-74
2023/12/15 06:50:05;;;;;;;113.70;36.30;;;;;;;;;;2078643;28;20520;-76
2023/12/15 06:51:26;;;;;;;99.88;33.67;;;;;;;;;;2077757;28;20603;-76
2023/12/15 06:52:49;;;;;;;91.60;30.65;;;;;;;;;;2086849;28;20041;-76
2023/12/15 06:54:09;;;;;;;;;;;;;;;;;;2088440;28;20492;-76
2023/12/15 06:55:31;;;;;;;88.53;30.45;;;;;;;;;;2075584;28;19943;-76
2023/12/15 06:56:52;;;;;;;87.43;30.85;;;;;;;;;;2080044;28;20044;-76
2023/12/15 06:58:13;;;;;;;98.40;30.92;;;;;;;;;;2080641;28;20034;-76
2023/12/15 06:59:34;;;;;;;80.55;29.20;;;;;;;;;;2080397;28;20029;-76
2023/12/15 07:00:55;;;;;;;87.97;32.30;;;;;;;;;;2073781;28;20042;-76
2023/12/15 07:02:16;;;;;;;87.60;32.08;;;;;;;;;;2081345;28;20520;-77
2023/12/15 07:03:36;;;;;;;88.47;29.00;;;;;;;;;;2082697;28;20084;-76
2023/12/15 07:04:57;;;;;;;86.80;28.23;;;;;;;;;;2080756;28;20025;-76
2023/12/15 07:06:18;;;;;;;100.30;31.70;;;;;;;;;;2073467;28;20037;-76
2023/12/15 07:07:39;;;;;;;76.25;30.70;;;;;;;;;;2076335;28;20042;-76
2023/12/15 07:09:00;;;;;;;97.20;33.40;;;;;;;;;;2079400;28;20026;-76
2023/12/15 07:10:21;;;;;;;91.95;29.73;;;;;;;;;;2080976;28;20402;-77
2023/12/15 07:11:44;;;;;;;85.57;30.77;;;;;;;;;;2080541;28;20099;-75
2023/12/15 07:13:05;;;;;;;93.85;30.95;;;;;;;;;;2077735;28;20042;-75
2023/12/15 07:14:26;;;;;;;95.13;31.80;;;;;;;;;;2081303;28;20056;-77
2023/12/15 07:15:47;;;;;;;102.10;33.47;;;;;;;;;;2080966;28;20030;-78
2023/12/15 07:17:08;;;;;;;94.32;31.17;;;;;;;;;;2079807;28;20026;-78
2023/12/15 07:18:29;;;;;;;104.43;31.77;;;;;;;;;;2076538;28;20026;-77
2023/12/15 07:19:50;;;;;;;98.07;33.70;;;;;;;;;;2072338;28;20038;-74
2023/12/15 07:21:11;;;;;;;98.05;31.35;;;;;;;;;;2072245;28;20378;-76
2023/12/15 07:22:32;;;;;;;106.82;35.55;;;;;;;;;;2071089;28;20053;-75
2023/12/15 07:23:53;;;;;;;96.25;32.63;;;;;;;;;;2073336;28;20030;-77
2023/12/15 07:25:13;;;;;;;93.85;30.50;;;;;;;;;;2072525;28;20037;-77
2023/12/15 07:26:34;;;;;;;96.72;33.03;;;;;;;;;;2075083;28;20390;-77
2023/12/15 07:27:55;;;;;;;92.10;31.85;;;;;;;;;;2089062;28;20037;-78
2023/12/15 07:29:17;;;;;;;92.45;33.20;;;;;;;;;;2088507;28;20029;-77
2023/12/15 07:30:39;;;;;;;98.78;32.63;;;;;;;;;;2071341;28;20029;-77
2023/12/15 07:32:00;;;;;;;95.68;31.52;;;;;;;;;;2071770;28;20030;-75
2023/12/15 07:33:20;;;;;;;85.38;31.85;;;;;;;;;;2070525;28;20505;-75
2023/12/15 07:34:42;;;;;;;95.35;32.05;;;;;;;;;;2071647;28;20041;-75
2023/12/15 07:36:03;;;;;;;86.38;30.75;;;;;;;;;;2070887;28;20029;-76
2023/12/15 07:37:24;;;;;;;97.90;32.15;;;;;;;;;;2072678;28;20037;-75
2023/12/15 07:38:46;;;;;;;82.25;30.58;;;;;;;;;;2068424;28;20030;-75
2023/12/15 07:40:07;;;;;;;80.80;32.17;;;;;;;;;;2075128;28;20021;-75
2023/12/15 07:41:27;;;;;;;97.93;33.90;;;;;;;;;;2078811;28;20041;-75
2023/12/15 07:42:48;;;;;;;78.90;30.17;;;;;;;;;;2075908;28;20092;-78
2023/12/15 07:44:09;;;;;;;84.38;32.22;;;;;;;;;;2076453;28;20044;-77
2023/12/15 07:45:30;;;;;;;88.93;28.80;;;;;;;;;;2079844;28;20045;-77
2023/12/15 07:46:54;;;;;;;92.60;31.77;;;;;;;;;;2077286;28;20021;-77
2023/12/15 07:48:15;;;;;;;98.65;32.33;;;;;;;;;;2085778;28;20485;-77
2023/12/15 07:49:36;;;;;;;88.20;30.15;;;;;;;;;;2082675;28;20026;-77
2023/12/15 07:50:57;;;;;;;103.72;33.70;;;;;;;;;;2079907;28;20034;-77
2023/12/15 07:52:18;;;;;;;104.70;33.97;;;;;;;;;;2079282;28;20397;-77